createdAt,value
2019-01-13T00:01:06.244Z,11.60
2019-01-13T00:03:33.159Z,11.90
2019-01-13T00:05:59.826Z,11.40
2019-01-13T00:08:26.826Z,11.80
2019-01-13T00:10:53.741Z,11.60
2019-01-13T00:13:20.988Z,11.30
2019-01-13T00:15:48.012Z,11.80
2019-01-13T00:18:15.709Z,12.30
2019-01-13T00:20:43.393Z,11.90
2019-01-13T00:23:10.990Z,12.40
2019-01-13T00:25:38.083Z,12.70
2019-01-13T00:28:06.974Z,12.10
2019-01-13T00:30:34.002Z,11.70
2019-01-13T00:33:00.983Z,11.90
2019-01-13T00:35:28.061Z,11.20
2019-01-13T00:37:54.982Z,11.80
2019-01-13T00:40:22.987Z,11.50
2019-01-13T00:42:50.846Z,11.70
2019-01-13T00:45:18.902Z,12.00
2019-01-13T00:47:45.929Z,11.90
2019-01-13T00:50:13.679Z,11.80
2019-01-13T00:52:40.711Z,12.20
2019-01-13T00:55:07.736Z,12.80
2019-01-13T00:57:37.190Z,12.50
2019-01-13T01:00:04.746Z,11.90
2019-01-13T01:02:31.812Z,12.00
2019-01-13T01:04:59.881Z,11.90
2019-01-13T01:07:27.209Z,12.60
2019-01-13T01:09:54.355Z,12.50
2019-01-13T01:12:22.256Z,12.30
2019-01-13T01:14:50.977Z,12.70
2019-01-13T01:17:17.560Z,12.30
2019-01-13T01:19:45.455Z,11.70
2019-01-13T01:22:12.434Z,11.60
2019-01-13T01:24:39.563Z,12.10
2019-01-13T01:27:06.510Z,11.70
2019-01-13T01:29:34.246Z,11.70
2019-01-13T01:32:02.329Z,12.00
2019-01-13T01:34:29.384Z,12.10
2019-01-13T01:36:57.024Z,12.30
2019-01-13T01:39:24.148Z,12.10
2019-01-13T01:41:52.169Z,12.40
2019-01-13T01:44:19.919Z,12.20
2019-01-13T01:46:47.886Z,12.30
2019-01-13T01:49:15.027Z,12.40
2019-01-13T01:51:42.031Z,12.60
2019-01-13T01:54:09.784Z,12.80
2019-01-13T01:56:36.793Z,13.20
2019-01-13T01:59:03.927Z,13.20
2019-01-13T02:01:31.073Z,12.90
2019-01-13T02:03:58.111Z,12.70
2019-01-13T02:06:25.229Z,12.60
2019-01-13T02:08:53.033Z,12.80
2019-01-13T02:11:20.153Z,13.50
2019-01-13T02:13:47.459Z,13.40
2019-01-13T02:16:14.570Z,13.70
2019-01-13T02:18:41.618Z,14.10
2019-01-13T02:21:08.590Z,14.60
2019-01-13T02:23:36.310Z,14.60
2019-01-13T02:26:03.304Z,14.80
2019-01-13T02:28:31.207Z,14.60
2019-01-13T02:31:00.104Z,13.50
2019-01-13T02:33:27.177Z,12.90
2019-01-13T02:35:55.380Z,12.50
2019-01-13T02:38:22.391Z,12.80
2019-01-13T02:40:50.425Z,13.50
2019-01-13T02:43:18.253Z,13.80
2019-01-13T02:45:44.900Z,14.20
2019-01-13T02:48:11.956Z,14.60
2019-01-13T02:50:39.115Z,13.90
2019-01-13T02:53:07.024Z,13.30
2019-01-13T02:55:35.356Z,12.90
2019-01-13T02:58:03.109Z,13.40
2019-01-13T03:00:30.420Z,13.60
2019-01-13T03:02:58.335Z,13.50
2019-01-13T03:05:25.351Z,13.00
2019-01-13T03:07:52.422Z,13.00
2019-01-13T03:10:19.416Z,12.30
2019-01-13T03:12:47.345Z,11.90
2019-01-13T03:15:19.370Z,12.30
2019-01-13T03:17:44.624Z,12.50
2019-01-13T03:20:11.823Z,12.30
2019-01-13T03:22:39.873Z,11.80
2019-01-13T03:25:07.822Z,12.10
2019-01-13T03:27:35.693Z,12.30
2019-01-13T03:30:02.823Z,12.40
2019-01-13T03:32:30.093Z,12.80
2019-01-13T03:34:57.136Z,13.10
2019-01-13T03:37:24.171Z,12.60
2019-01-13T03:39:51.498Z,12.40
2019-01-13T03:42:19.439Z,12.20
2019-01-13T03:44:47.192Z,12.40
2019-01-13T03:47:14.229Z,12.50
2019-01-13T03:49:42.088Z,12.00
2019-01-13T03:52:10.216Z,12.00
2019-01-13T03:54:38.263Z,11.50
2019-01-13T03:57:05.654Z,11.40
2019-01-13T03:59:33.529Z,11.30
2019-01-13T04:02:01.844Z,11.40
2019-01-13T04:04:29.438Z,11.50
2019-01-13T04:06:56.616Z,11.90
2019-01-13T04:09:24.651Z,12.00
2019-01-13T04:11:51.604Z,12.00
2019-01-13T04:14:18.586Z,11.40
2019-01-13T04:16:45.697Z,11.20
2019-01-13T04:19:13.634Z,10.80
2019-01-13T04:21:40.650Z,10.90
2019-01-13T04:24:08.385Z,11.00
2019-01-13T04:26:35.539Z,10.80
2019-01-13T04:29:03.609Z,10.80
2019-01-13T04:31:30.805Z,10.40
2019-01-13T04:33:58.771Z,10.70
2019-01-13T04:36:25.582Z,10.60
2019-01-13T04:38:53.374Z,10.60
2019-01-13T04:41:21.298Z,11.20
2019-01-13T04:43:48.403Z,10.90
2019-01-13T04:46:15.506Z,10.50
2019-01-13T04:48:43.259Z,11.20
2019-01-13T04:51:11.358Z,11.60
2019-01-13T04:53:38.468Z,12.20
2019-01-13T04:56:05.478Z,11.70
2019-01-13T04:58:33.286Z,12.00
2019-01-13T05:01:00.352Z,11.70
2019-01-13T05:03:27.322Z,11.80
2019-01-13T05:05:54.367Z,11.80
2019-01-13T05:08:21.433Z,11.40
2019-01-13T05:10:48.644Z,11.20
2019-01-13T05:13:15.596Z,11.20
2019-01-13T05:15:42.646Z,11.10
2019-01-13T05:18:09.900Z,11.70
2019-01-13T05:20:36.966Z,11.90
2019-01-13T05:23:03.974Z,11.80
2019-01-13T05:25:31.849Z,11.60
2019-01-13T05:27:59.003Z,11.80
2019-01-13T05:30:27.280Z,11.20
2019-01-13T05:32:54.170Z,11.20
2019-01-13T05:35:22.173Z,11.50
2019-01-13T05:37:49.089Z,11.40
2019-01-13T05:40:16.902Z,11.40
2019-01-13T05:42:44.546Z,11.30
2019-01-13T05:45:12.153Z,11.60
2019-01-13T05:47:39.053Z,11.40
2019-01-13T05:50:06.698Z,11.30
2019-01-13T05:52:33.607Z,11.30
2019-01-13T05:55:01.448Z,10.90
2019-01-13T05:57:28.354Z,10.90
2019-01-13T05:59:55.489Z,11.20
2019-01-13T06:02:23.177Z,11.60
2019-01-13T06:04:50.192Z,11.70
2019-01-13T06:07:17.196Z,11.50
2019-01-13T06:09:44.482Z,11.70
2019-01-13T06:12:12.191Z,12.10
2019-01-13T06:14:39.154Z,11.80
2019-01-13T06:17:05.858Z,12.10
2019-01-13T06:19:32.981Z,11.70
2019-01-13T06:21:59.971Z,11.90
2019-01-13T06:24:27.962Z,12.00
2019-01-13T06:26:55.627Z,11.90
2019-01-13T06:29:23.623Z,11.90
2019-01-13T06:31:56.270Z,11.40
2019-01-13T06:34:19.922Z,11.40
2019-01-13T06:36:46.984Z,11.80
2019-01-13T06:39:13.973Z,11.20
2019-01-13T06:41:42.104Z,11.50
2019-01-13T06:44:09.859Z,11.80
2019-01-13T06:46:39.219Z,11.50
2019-01-13T06:49:06.192Z,11.20
2019-01-13T06:51:33.372Z,11.40
2019-01-13T06:53:59.941Z,11.50
2019-01-13T06:56:26.986Z,11.50
2019-01-13T06:58:54.810Z,11.10
2019-01-13T07:01:22.734Z,10.90
2019-01-13T07:03:49.925Z,11.00
2019-01-13T07:06:17.731Z,10.90
2019-01-13T07:08:45.139Z,10.80
2019-01-13T07:11:12.215Z,10.90
2019-01-13T07:13:38.944Z,10.50
2019-01-13T07:16:07.336Z,10.60
2019-01-13T07:18:36.115Z,10.70
2019-01-13T07:21:03.115Z,10.80
2019-01-13T07:23:29.743Z,10.60
2019-01-13T07:25:58.492Z,10.90
2019-01-13T07:28:26.184Z,10.90
2019-01-13T07:30:53.130Z,11.60
2019-01-13T07:33:20.899Z,11.80
2019-01-13T07:35:48.014Z,11.90
2019-01-13T07:38:14.701Z,11.60
2019-01-13T07:40:41.848Z,11.40
2019-01-13T07:43:08.727Z,11.10
2019-01-13T07:45:35.774Z,11.20
2019-01-13T07:48:02.975Z,11.00
2019-01-13T07:50:48.097Z,10.80
2019-01-13T07:53:15.278Z,10.80
2019-01-13T07:55:41.996Z,10.80
2019-01-13T07:58:09.115Z,11.20
2019-01-13T08:00:38.365Z,11.50
2019-01-13T08:03:06.227Z,11.40
2019-01-13T08:05:33.275Z,11.40
2019-01-13T08:08:01.032Z,11.70
2019-01-13T08:10:28.108Z,12.10
2019-01-13T08:12:55.214Z,11.80
2019-01-13T08:15:22.371Z,11.60
2019-01-13T08:17:50.039Z,11.50
2019-01-13T08:20:17.225Z,12.20
2019-01-13T08:22:44.623Z,12.40
2019-01-13T08:25:11.649Z,12.00
2019-01-13T08:27:38.754Z,11.80
2019-01-13T08:30:06.578Z,11.80
2019-01-13T08:32:34.373Z,11.90
2019-01-13T08:35:02.140Z,12.10
2019-01-13T08:37:29.705Z,12.70
2019-01-13T08:39:56.752Z,12.10
2019-01-13T08:42:24.523Z,11.90
2019-01-13T08:44:52.327Z,12.30
2019-01-13T08:47:19.466Z,12.00
2019-01-13T08:49:47.368Z,12.30
2019-01-13T08:52:15.050Z,13.10
2019-01-13T08:54:42.724Z,12.60
2019-01-13T08:57:10.528Z,12.30
2019-01-13T08:59:38.290Z,12.10
2019-01-13T09:02:06.109Z,12.00
2019-01-13T09:04:33.083Z,12.10
2019-01-13T09:07:00.260Z,12.10
2019-01-13T09:09:27.384Z,11.50
2019-01-13T09:11:54.452Z,11.90
2019-01-13T09:14:21.608Z,11.90
2019-01-13T09:16:48.258Z,11.90
2019-01-13T09:19:15.372Z,12.00
2019-01-13T09:21:42.099Z,12.10
2019-01-13T09:24:09.929Z,12.10
2019-01-13T09:26:37.009Z,11.90
2019-01-13T09:29:04.184Z,11.80
2019-01-13T09:31:31.440Z,11.90
2019-01-13T09:33:58.588Z,12.10
2019-01-13T09:36:25.741Z,12.00
2019-01-13T09:38:52.867Z,12.10
2019-01-13T09:41:20.679Z,12.20
2019-01-13T09:43:48.273Z,12.40
2019-01-13T09:46:15.428Z,12.50
2019-01-13T09:48:42.089Z,12.70
2019-01-13T09:51:09.996Z,12.70
2019-01-13T09:53:36.757Z,12.00
2019-01-13T09:56:03.489Z,11.60
2019-01-13T09:58:30.195Z,11.90
2019-01-13T10:00:57.346Z,11.70
2019-01-13T10:03:24.452Z,11.70
2019-01-13T10:05:51.160Z,11.70
2019-01-13T10:08:19.214Z,12.10
2019-01-13T10:10:46.252Z,12.60
2019-01-13T10:13:13.333Z,12.40
2019-01-13T10:15:40.589Z,12.20
2019-01-13T10:18:07.450Z,12.10
2019-01-13T10:20:36.232Z,11.90
2019-01-13T10:23:03.414Z,11.70
2019-01-13T10:25:30.459Z,11.70
2019-01-13T10:27:58.261Z,11.80
2019-01-13T10:30:25.361Z,12.10
2019-01-13T10:32:54.614Z,11.70
2019-01-13T10:35:21.014Z,11.70
2019-01-13T10:37:48.818Z,11.60
2019-01-13T10:40:15.946Z,12.10
2019-01-13T10:42:42.955Z,12.30
2019-01-13T10:45:10.132Z,12.50
2019-01-13T10:47:37.272Z,12.70
2019-01-13T10:50:04.342Z,12.60
2019-01-13T10:52:31.787Z,12.40
2019-01-13T10:54:59.123Z,12.60
2019-01-13T10:57:26.528Z,12.30
2019-01-13T10:59:53.667Z,12.30
2019-01-13T11:02:21.436Z,12.50
2019-01-13T11:04:48.634Z,12.70
2019-01-13T11:07:15.361Z,12.60
2019-01-13T11:09:42.457Z,12.40
2019-01-13T11:12:09.524Z,12.50
2019-01-13T11:14:36.376Z,12.40
2019-01-13T11:17:03.050Z,12.20
2019-01-13T11:19:30.118Z,12.00
2019-01-13T11:21:57.923Z,12.00
2019-01-13T11:24:25.037Z,12.10
2019-01-13T11:26:52.152Z,12.10
2019-01-13T11:29:19.242Z,12.40
2019-01-13T11:31:46.367Z,12.40
2019-01-13T11:34:13.545Z,12.70
2019-01-13T11:36:40.455Z,12.60
2019-01-13T11:39:07.143Z,12.40
2019-01-13T11:41:33.937Z,12.40
2019-01-13T11:44:00.590Z,12.70
2019-01-13T11:46:27.784Z,12.60
2019-01-13T11:48:54.918Z,12.80
2019-01-13T11:51:21.576Z,13.00
2019-01-13T11:53:48.719Z,12.90
2019-01-13T11:56:16.744Z,12.70
2019-01-13T11:58:43.827Z,12.60
2019-01-13T12:01:10.952Z,12.60
2019-01-13T12:03:38.768Z,12.50
2019-01-13T12:06:05.496Z,12.50
2019-01-13T12:08:32.419Z,12.90
2019-01-13T12:10:59.463Z,12.80
2019-01-13T12:13:26.641Z,12.60
2019-01-13T12:15:53.386Z,12.50
2019-01-13T12:18:20.119Z,12.70
2019-01-13T12:20:47.911Z,12.50
2019-01-13T12:23:14.654Z,12.60
2019-01-13T12:25:42.345Z,12.70
2019-01-13T12:28:09.130Z,12.30
2019-01-13T12:30:36.400Z,12.20
2019-01-13T12:33:03.082Z,12.20
2019-01-13T12:35:30.794Z,12.50
2019-01-13T12:37:59.283Z,12.60
2019-01-13T12:40:28.316Z,12.60
2019-01-13T12:42:56.828Z,12.40
2019-01-13T12:45:24.733Z,12.30
2019-01-13T12:47:51.898Z,12.50
2019-01-13T12:50:18.557Z,12.50
2019-01-13T12:52:46.474Z,12.80
2019-01-13T12:55:13.143Z,12.20
2019-01-13T12:57:40.742Z,12.40
2019-01-13T13:00:08.048Z,12.50
2019-01-13T13:02:35.351Z,12.80
2019-01-13T13:05:02.387Z,12.50
2019-01-13T13:07:30.059Z,12.40
2019-01-13T13:09:57.353Z,12.40
2019-01-13T13:12:26.519Z,12.70
2019-01-13T13:14:53.619Z,12.30
2019-01-13T13:17:21.492Z,12.00
2019-01-13T13:19:49.530Z,12.40
2019-01-13T13:22:16.262Z,12.20
2019-01-13T13:24:43.410Z,12.00
2019-01-13T13:27:10.685Z,12.10
2019-01-13T13:29:37.671Z,12.20
2019-01-13T13:32:05.659Z,12.00
2019-01-13T13:34:37.115Z,12.10
2019-01-13T13:37:04.167Z,11.90
2019-01-13T13:39:30.856Z,12.10
2019-01-13T13:41:57.957Z,12.20
2019-01-13T13:44:24.858Z,12.00
2019-01-13T13:46:51.932Z,12.10
2019-01-13T13:49:19.631Z,12.20
2019-01-13T13:51:46.741Z,12.40
2019-01-13T13:54:14.691Z,12.00
2019-01-13T13:56:41.822Z,11.80
2019-01-13T13:59:11.258Z,12.00
2019-01-13T14:01:38.341Z,11.70
2019-01-13T14:04:07.480Z,11.70
2019-01-13T14:06:36.324Z,11.80
2019-01-13T14:09:04.362Z,11.80
2019-01-13T14:11:31.509Z,12.20
2019-01-13T14:13:59.362Z,12.70
2019-01-13T14:16:26.032Z,12.60
2019-01-13T14:18:53.306Z,12.60
2019-01-13T14:21:20.392Z,12.60
2019-01-13T14:23:47.492Z,12.50
2019-01-13T14:26:14.250Z,12.10
2019-01-13T14:28:41.273Z,12.20
2019-01-13T14:31:08.064Z,12.00
2019-01-13T14:33:35.182Z,11.90
2019-01-13T14:36:01.895Z,11.60
2019-01-13T14:38:29.086Z,11.50
2019-01-13T14:40:56.815Z,11.40
2019-01-13T14:43:23.503Z,11.50
2019-01-13T14:45:50.658Z,11.70
2019-01-13T14:48:17.338Z,11.80
2019-01-13T14:50:44.416Z,11.70
2019-01-13T14:53:11.216Z,11.80
2019-01-13T14:55:37.934Z,11.90
2019-01-13T14:58:06.107Z,12.20
2019-01-13T15:00:33.307Z,11.90
2019-01-13T15:03:00.450Z,11.50
2019-01-13T15:05:27.468Z,11.80
2019-01-13T15:07:54.147Z,12.00
2019-01-13T15:10:20.808Z,11.80
2019-01-13T15:12:47.531Z,11.50
2019-01-13T15:15:14.676Z,11.40
2019-01-13T15:17:41.622Z,11.80
2019-01-13T15:20:12.183Z,11.70
2019-01-13T15:22:39.298Z,11.70
2019-01-13T15:25:06.378Z,11.90
2019-01-13T15:27:33.369Z,11.90
2019-01-13T15:30:00.493Z,11.70
2019-01-13T15:32:27.495Z,11.80
2019-01-13T15:34:54.448Z,12.00
2019-01-13T15:37:21.599Z,12.40
2019-01-13T15:39:48.279Z,13.00
2019-01-13T15:42:16.210Z,13.30
2019-01-13T15:44:43.208Z,13.40
2019-01-13T15:47:10.299Z,13.50
2019-01-13T15:49:37.300Z,14.10
2019-01-13T15:52:04.331Z,14.30
2019-01-13T15:54:32.307Z,14.40
2019-01-13T15:56:59.407Z,14.70
2019-01-13T15:59:26.505Z,14.90
2019-01-13T16:01:53.919Z,15.10
2019-01-13T16:04:21.012Z,15.20
2019-01-13T16:06:48.785Z,14.70
2019-01-13T16:09:16.531Z,14.20
2019-01-13T16:11:43.762Z,14.10
2019-01-13T16:14:11.677Z,13.50
2019-01-13T16:16:40.542Z,13.00
2019-01-13T16:19:07.278Z,13.00
2019-01-13T16:21:34.883Z,12.90
2019-01-13T16:24:01.963Z,12.60
2019-01-13T16:26:29.565Z,12.40
2019-01-13T16:28:56.940Z,12.70
2019-01-13T16:31:24.027Z,13.00
2019-01-13T16:33:51.094Z,13.10
2019-01-13T16:36:18.549Z,13.10
2019-01-13T16:38:45.758Z,13.00
2019-01-13T16:41:13.434Z,13.10
2019-01-13T16:43:40.521Z,13.40
2019-01-13T16:46:07.571Z,13.40
2019-01-13T16:48:34.656Z,13.70
2019-01-13T16:51:01.452Z,13.50
2019-01-13T16:53:28.584Z,13.90
2019-01-13T16:55:56.212Z,13.80
2019-01-13T16:58:32.370Z,13.90
2019-01-13T17:00:59.419Z,14.30
2019-01-13T17:03:26.128Z,14.20
2019-01-13T17:05:53.188Z,13.70
2019-01-13T17:08:20.848Z,13.80
2019-01-13T17:10:48.228Z,13.60
2019-01-13T17:13:15.257Z,13.20
2019-01-13T17:15:43.604Z,13.10
2019-01-13T17:18:11.570Z,12.60
2019-01-13T17:20:39.213Z,12.90
2019-01-13T17:23:06.417Z,13.00
2019-01-13T17:25:33.677Z,13.20
2019-01-13T17:28:01.379Z,13.10
2019-01-13T17:30:28.424Z,13.50
2019-01-13T17:32:56.313Z,13.00
2019-01-13T17:35:23.003Z,12.90
2019-01-13T17:37:50.954Z,13.00
2019-01-13T17:40:18.137Z,12.90
2019-01-13T17:42:45.955Z,12.90
2019-01-13T17:45:12.984Z,13.10
2019-01-13T17:47:39.673Z,12.90
2019-01-13T17:50:07.590Z,12.50
2019-01-13T17:52:34.628Z,12.10
2019-01-13T17:55:01.853Z,12.80
2019-01-13T17:57:28.973Z,13.20
2019-01-13T17:59:56.025Z,13.20
2019-01-13T18:02:22.965Z,13.20
2019-01-13T18:04:50.655Z,12.90
2019-01-13T18:07:18.555Z,12.70
2019-01-13T18:09:45.724Z,13.00
2019-01-13T18:12:12.951Z,12.80
2019-01-13T18:14:39.816Z,12.80
2019-01-13T18:17:06.897Z,12.80
2019-01-13T18:19:33.945Z,13.00
2019-01-13T18:22:01.877Z,13.00
2019-01-13T18:24:28.969Z,12.80
2019-01-13T18:26:55.690Z,12.80
2019-01-13T18:29:22.901Z,12.70
2019-01-13T18:31:49.541Z,12.80
2019-01-13T18:34:18.374Z,12.80
2019-01-13T18:36:46.335Z,12.80
2019-01-13T18:39:13.683Z,12.40
2019-01-13T18:41:40.409Z,12.40
2019-01-13T18:44:07.505Z,12.80
2019-01-13T18:46:35.335Z,12.50
2019-01-13T18:49:03.227Z,12.60
2019-01-13T18:51:30.405Z,12.50
2019-01-13T18:53:57.449Z,12.40
2019-01-13T18:56:24.129Z,12.10
2019-01-13T18:58:50.825Z,12.00
2019-01-13T19:01:17.854Z,11.60
2019-01-13T19:03:44.829Z,11.80
2019-01-13T19:06:11.527Z,11.80
2019-01-13T19:08:39.544Z,12.30
2019-01-13T19:11:08.607Z,12.90
2019-01-13T19:13:35.615Z,13.00
2019-01-13T19:16:02.874Z,12.40
2019-01-13T19:18:30.241Z,12.00
2019-01-13T19:20:57.324Z,12.20
2019-01-13T19:23:26.551Z,11.80
2019-01-13T19:25:53.758Z,11.40
2019-01-13T19:28:21.499Z,11.70
2019-01-13T19:30:48.968Z,12.20
2019-01-13T19:33:15.933Z,12.60
2019-01-13T19:35:42.976Z,12.90
2019-01-13T19:38:10.690Z,12.40
2019-01-13T19:40:37.749Z,12.10
2019-01-13T19:43:05.295Z,12.60
2019-01-13T19:45:33.998Z,12.30
2019-01-13T19:48:01.638Z,12.50
2019-01-13T19:50:29.487Z,12.50
2019-01-13T19:52:56.548Z,12.20
2019-01-13T19:55:24.188Z,12.30
2019-01-13T19:57:53.398Z,12.20
2019-01-13T20:00:20.909Z,12.20
2019-01-13T20:02:48.179Z,12.10
2019-01-13T20:05:14.905Z,12.60
2019-01-13T20:07:41.911Z,12.40
2019-01-13T20:10:11.431Z,12.10
2019-01-13T20:12:40.556Z,12.00
2019-01-13T20:15:08.094Z,12.20
2019-01-13T20:17:35.522Z,12.10
2019-01-13T20:20:02.610Z,12.00
2019-01-13T20:22:31.737Z,11.80
2019-01-13T20:24:58.704Z,11.60
2019-01-13T20:27:25.464Z,11.50
2019-01-13T20:29:52.725Z,11.40
2019-01-13T20:32:19.676Z,11.30
2019-01-13T20:34:46.394Z,11.00
2019-01-13T20:37:14.123Z,10.80
2019-01-13T20:39:41.267Z,11.20
2019-01-13T20:42:08.444Z,11.30
2019-01-13T20:44:36.086Z,11.60
2019-01-13T20:47:03.209Z,11.40
2019-01-13T20:49:30.897Z,11.10
2019-01-13T20:51:58.458Z,11.00
2019-01-13T20:54:25.122Z,11.00
2019-01-13T20:56:52.234Z,11.20
2019-01-13T20:59:19.267Z,11.50
2019-01-13T21:01:45.881Z,11.30
2019-01-13T21:04:13.290Z,11.40
2019-01-13T21:06:40.334Z,11.70
2019-01-13T21:09:07.375Z,11.70
2019-01-13T21:11:34.522Z,12.30
2019-01-13T21:14:01.217Z,12.30
2019-01-13T21:16:28.302Z,12.50
2019-01-13T21:18:55.150Z,12.80
2019-01-13T21:21:22.178Z,12.70
2019-01-13T21:23:49.887Z,12.40
2019-01-13T21:26:16.529Z,11.90
2019-01-13T21:28:43.234Z,11.80
2019-01-13T21:31:10.349Z,11.70
2019-01-13T21:33:38.070Z,11.60
2019-01-13T21:36:05.085Z,11.40
2019-01-13T21:38:32.806Z,11.70
2019-01-13T21:40:59.849Z,11.60
2019-01-13T21:43:27.603Z,11.60
2019-01-13T21:45:54.600Z,11.50
2019-01-13T21:48:21.809Z,11.50
2019-01-13T21:50:49.448Z,11.40
2019-01-13T21:53:16.545Z,11.40
2019-01-13T21:55:44.108Z,11.80
2019-01-13T21:58:11.172Z,12.10
2019-01-13T22:00:37.815Z,11.80
2019-01-13T22:03:04.662Z,12.20
2019-01-13T22:05:32.377Z,11.20
2019-01-13T22:07:59.419Z,11.00
2019-01-13T22:10:28.022Z,10.60
2019-01-13T22:12:54.786Z,10.20
2019-01-13T22:15:22.492Z,10.40
2019-01-13T22:17:49.625Z,11.10
2019-01-13T22:20:16.672Z,11.30
2019-01-13T22:22:44.537Z,11.60
2019-01-13T22:25:11.440Z,11.30
2019-01-13T22:27:38.592Z,11.20
2019-01-13T22:30:05.844Z,11.80
2019-01-13T22:32:32.916Z,12.60
2019-01-13T22:35:00.024Z,12.50
2019-01-13T22:37:27.066Z,12.20
2019-01-13T22:39:54.749Z,12.00
2019-01-13T22:42:21.642Z,12.00
2019-01-13T22:44:49.446Z,11.90
2019-01-13T22:47:16.568Z,12.00
2019-01-13T22:49:44.403Z,11.60
2019-01-13T22:52:11.506Z,11.20
2019-01-13T22:54:39.481Z,11.60
2019-01-13T22:57:06.462Z,12.10
2019-01-13T22:59:33.512Z,12.10
2019-01-13T23:02:00.685Z,11.80
2019-01-13T23:04:27.715Z,11.80
2019-01-13T23:06:54.296Z,11.90
2019-01-13T23:09:21.299Z,12.40
2019-01-13T23:11:49.008Z,12.40
2019-01-13T23:14:16.011Z,12.70
2019-01-13T23:16:43.481Z,12.50
2019-01-13T23:19:11.168Z,12.40
2019-01-13T23:21:38.227Z,12.50
2019-01-13T23:24:05.326Z,12.60
2019-01-13T23:26:31.959Z,13.10
2019-01-13T23:28:59.061Z,13.50
2019-01-13T23:31:26.216Z,13.50
2019-01-13T23:33:53.979Z,13.90
2019-01-13T23:36:21.123Z,13.70
2019-01-13T23:38:48.995Z,13.70
2019-01-13T23:41:16.537Z,13.20
2019-01-13T23:43:43.599Z,13.50
2019-01-13T23:46:11.565Z,13.50
2019-01-13T23:48:39.225Z,13.40
2019-01-13T23:51:06.110Z,13.60
2019-01-13T23:53:32.761Z,13.40
2019-01-13T23:55:59.403Z,13.70
2019-01-13T23:58:26.782Z,13.70
